RYR95JY EDSB-EGSS
Flight info
| Callsign | RYR95JY |
|---|---|
| Flight time | N/A |
| Altitude | 32000 |
| Route | STR1Z STR R11 OBORN V17 GTQ DCT SUTAL N852 DIK M624 RITAX DCT BUB DCT HELEN DCT KOZUF DCT IMPOH DCT SASKI L608 SUMUM Y6 TOSVA |
| Aircraft | B738/M-SDE2E3FGHIRWXY/LB1 |
Departure
| Time | N/A |
|---|---|
| Airport | Karlsruhe Baden-Baden Airport (EDSB) |
Arrival
| Time | 2026-05-05 04:19 |
|---|---|
| Airport | London Stansted Airport (EGSS) |
| Time | Latitude | Longitude | Altitude | Speed | Heading |
|---|---|---|---|---|---|
| 2026-05-05 03:43 | 50.51837 | 5.13705 | 31911 ft | 439 kts | 310° |
| 2026-05-05 03:43 | 50.54017 | 5.10338 | 31912 ft | 439 kts | 310° |
| 2026-05-05 03:43 | 50.58370 | 5.03606 | 31910 ft | 439 kts | 310° |
| 2026-05-05 03:44 | 50.62688 | 4.96909 | 31913 ft | 438 kts | 311° |
| 2026-05-05 03:44 | 50.67028 | 4.90161 | 31916 ft | 438 kts | 311° |
| 2026-05-05 03:45 | 50.71391 | 4.83356 | 31925 ft | 438 kts | 311° |
| 2026-05-05 03:45 | 50.75712 | 4.76597 | 31933 ft | 438 kts | 311° |
| 2026-05-05 03:46 | 50.80035 | 4.69818 | 31940 ft | 437 kts | 311° |
| 2026-05-05 03:46 | 50.84351 | 4.63031 | 31941 ft | 437 kts | 311° |
| 2026-05-05 03:47 | 50.88627 | 4.56290 | 31942 ft | 437 kts | 311° |
| 2026-05-05 03:47 | 50.92703 | 4.49122 | 31949 ft | 433 kts | 305° |
| 2026-05-05 03:48 | 50.96396 | 4.41676 | 31942 ft | 432 kts | 304° |
| 2026-05-05 03:48 | 51.00101 | 4.34161 | 31937 ft | 432 kts | 304° |
| 2026-05-05 03:49 | 51.03829 | 4.26671 | 31938 ft | 432 kts | 305° |
| 2026-05-05 03:49 | 51.07562 | 4.19188 | 31935 ft | 432 kts | 305° |
| 2026-05-05 03:50 | 51.11292 | 4.11694 | 31934 ft | 432 kts | 305° |
| 2026-05-05 03:50 | 51.15017 | 4.04186 | 31934 ft | 432 kts | 305° |
| 2026-05-05 03:51 | 51.18738 | 3.96664 | 31929 ft | 432 kts | 304° |
| 2026-05-05 03:51 | 51.22457 | 3.89125 | 31929 ft | 432 kts | 304° |
| 2026-05-05 03:52 | 51.26332 | 3.81775 | 31933 ft | 434 kts | 309° |
| 2026-05-05 03:52 | 51.30414 | 3.74596 | 31939 ft | 434 kts | 308° |
| 2026-05-05 03:53 | 51.34254 | 3.67178 | 31935 ft | 430 kts | 298° |
| 2026-05-05 03:53 | 51.36684 | 3.58606 | 31692 ft | 426 kts | 283° |
| 2026-05-05 03:54 | 51.37478 | 3.54048 | 31382 ft | 424 kts | 282° |
| 2026-05-05 03:54 | 51.38247 | 3.49442 | 31076 ft | 423 kts | 282° |
| 2026-05-05 03:54 | 51.39008 | 3.44894 | 30785 ft | 424 kts | 282° |
| 2026-05-05 03:54 | 51.39773 | 3.40381 | 30495 ft | 425 kts | 282° |
| 2026-05-05 03:55 | 51.40558 | 3.35817 | 30200 ft | 426 kts | 283° |
| 2026-05-05 03:55 | 51.41360 | 3.31186 | 29891 ft | 426 kts | 283° |
| 2026-05-05 03:55 | 51.42152 | 3.26624 | 29558 ft | 427 kts | 283° |
| 2026-05-05 03:55 | 51.42950 | 3.22018 | 29221 ft | 427 kts | 283° |
| 2026-05-05 03:56 | 51.43743 | 3.17433 | 28877 ft | 428 kts | 283° |
| 2026-05-05 03:56 | 51.44537 | 3.12823 | 28556 ft | 429 kts | 283° |
| 2026-05-05 03:56 | 51.45325 | 3.08200 | 28233 ft | 431 kts | 282° |
| 2026-05-05 03:56 | 51.46100 | 3.03542 | 27915 ft | 433 kts | 282° |
| 2026-05-05 03:57 | 51.46869 | 2.98863 | 27598 ft | 435 kts | 282° |
| 2026-05-05 03:57 | 51.47627 | 2.94227 | 27284 ft | 437 kts | 282° |
| 2026-05-05 03:57 | 51.48392 | 2.89553 | 26964 ft | 430 kts | 282° |
| 2026-05-05 03:57 | 51.49145 | 2.84951 | 26644 ft | 424 kts | 282° |
| 2026-05-05 03:58 | 51.49890 | 2.80384 | 26341 ft | 424 kts | 282° |
| 2026-05-05 03:58 | 51.50637 | 2.75796 | 26044 ft | 425 kts | 282° |
| 2026-05-05 03:58 | 51.51382 | 2.71207 | 25748 ft | 425 kts | 282° |
| 2026-05-05 03:58 | 51.52127 | 2.66608 | 25452 ft | 425 kts | 282° |
| 2026-05-05 03:59 | 51.52866 | 2.62034 | 25157 ft | 424 kts | 282° |
| 2026-05-05 03:59 | 51.53605 | 2.57455 | 24872 ft | 423 kts | 282° |
| 2026-05-05 03:59 | 51.54340 | 2.52879 | 24575 ft | 422 kts | 282° |
| 2026-05-05 03:59 | 51.55121 | 2.48356 | 24293 ft | 421 kts | 286° |
| 2026-05-05 04:00 | 51.56103 | 2.43921 | 24013 ft | 420 kts | 289° |
| 2026-05-05 04:00 | 51.57140 | 2.39537 | 23732 ft | 419 kts | 289° |
| 2026-05-05 04:00 | 51.58163 | 2.35163 | 23431 ft | 418 kts | 288° |
| 2026-05-05 04:00 | 51.59171 | 2.30782 | 23064 ft | 417 kts | 288° |
| 2026-05-05 04:01 | 51.60167 | 2.26409 | 22689 ft | 417 kts | 288° |
| 2026-05-05 04:01 | 51.61154 | 2.22064 | 22302 ft | 409 kts | 288° |
| 2026-05-05 04:01 | 51.62122 | 2.17797 | 21922 ft | 402 kts | 288° |
| 2026-05-05 04:01 | 51.63266 | 2.13734 | 21526 ft | 399 kts | 301° |
| 2026-05-05 04:02 | 51.65013 | 2.10279 | 21208 ft | 396 kts | 315° |
| 2026-05-05 04:02 | 51.67191 | 2.07627 | 20866 ft | 394 kts | 329° |
| 2026-05-05 04:02 | 51.69615 | 2.05569 | 20588 ft | 393 kts | 332° |
| 2026-05-05 04:02 | 51.72045 | 2.03579 | 20328 ft | 392 kts | 331° |
| 2026-05-05 04:03 | 51.74468 | 2.01585 | 19983 ft | 391 kts | 331° |
| 2026-05-05 04:03 | 51.76879 | 1.99574 | 19691 ft | 390 kts | 331° |
| 2026-05-05 04:03 | 51.79279 | 1.97544 | 19401 ft | 389 kts | 330° |
| 2026-05-05 04:03 | 51.81672 | 1.95502 | 19125 ft | 388 kts | 330° |
| 2026-05-05 04:04 | 51.84055 | 1.93462 | 18813 ft | 387 kts | 330° |
| 2026-05-05 04:04 | 51.86427 | 1.91431 | 18511 ft | 386 kts | 330° |
| 2026-05-05 04:04 | 51.88757 | 1.89280 | 18172 ft | 383 kts | 321° |
| 2026-05-05 04:04 | 51.90588 | 1.86231 | 17827 ft | 377 kts | 302° |
| 2026-05-05 04:05 | 51.91894 | 1.82572 | 17498 ft | 373 kts | 297° |
| 2026-05-05 04:05 | 51.93098 | 1.78868 | 17131 ft | 371 kts | 296° |
| 2026-05-05 04:05 | 51.94281 | 1.75162 | 16795 ft | 369 kts | 296° |
| 2026-05-05 04:05 | 51.95459 | 1.71485 | 16461 ft | 366 kts | 296° |
| 2026-05-05 04:06 | 51.96636 | 1.67840 | 16126 ft | 364 kts | 296° |
| 2026-05-05 04:06 | 51.97814 | 1.64216 | 15787 ft | 362 kts | 297° |
| 2026-05-05 04:06 | 51.98989 | 1.60617 | 15475 ft | 360 kts | 297° |
| 2026-05-05 04:06 | 52.00142 | 1.57088 | 15160 ft | 358 kts | 297° |
| 2026-05-05 04:07 | 52.01307 | 1.53525 | 14843 ft | 356 kts | 297° |
| 2026-05-05 04:07 | 52.02465 | 1.49979 | 14538 ft | 355 kts | 297° |
| 2026-05-05 04:07 | 52.03620 | 1.46440 | 14215 ft | 353 kts | 297° |
| 2026-05-05 04:07 | 52.04765 | 1.42924 | 13911 ft | 352 kts | 297° |
| 2026-05-05 04:08 | 52.05907 | 1.39416 | 13568 ft | 350 kts | 297° |
| 2026-05-05 04:08 | 52.07041 | 1.35924 | 13233 ft | 348 kts | 297° |
| 2026-05-05 04:08 | 52.08158 | 1.32481 | 12897 ft | 339 kts | 297° |
| 2026-05-05 04:08 | 52.09238 | 1.29153 | 12593 ft | 326 kts | 297° |
| 2026-05-05 04:09 | 52.10270 | 1.25963 | 12322 ft | 313 kts | 297° |
| 2026-05-05 04:09 | 52.11215 | 1.22867 | 12042 ft | 300 kts | 288° |
| 2026-05-05 04:09 | 52.11520 | 1.19586 | 11789 ft | 290 kts | 267° |
| 2026-05-05 04:09 | 52.11171 | 1.16382 | 11545 ft | 287 kts | 256° |
| 2026-05-05 04:10 | 52.10656 | 1.13247 | 11299 ft | 286 kts | 255° |
| 2026-05-05 04:10 | 52.10120 | 1.10138 | 11058 ft | 285 kts | 255° |
| 2026-05-05 04:10 | 52.09587 | 1.07046 | 10807 ft | 284 kts | 255° |
| 2026-05-05 04:10 | 52.09057 | 1.03957 | 10561 ft | 283 kts | 255° |
| 2026-05-05 04:11 | 52.08536 | 1.00890 | 10326 ft | 281 kts | 255° |
| 2026-05-05 04:11 | 52.08018 | 0.97828 | 10104 ft | 280 kts | 255° |
| 2026-05-05 04:11 | 52.07506 | 0.94792 | 9890 ft | 278 kts | 255° |
| 2026-05-05 04:11 | 52.06997 | 0.91765 | 9651 ft | 277 kts | 255° |
| 2026-05-05 04:12 | 52.06490 | 0.88754 | 9411 ft | 276 kts | 255° |
| 2026-05-05 04:12 | 52.06175 | 0.86881 | 9271 ft | 275 kts | 255° |
| 2026-05-05 04:12 | 52.05669 | 0.83888 | 9017 ft | 274 kts | 255° |
| 2026-05-05 04:12 | 52.05164 | 0.80900 | 8804 ft | 274 kts | 255° |
| 2026-05-05 04:13 | 52.04662 | 0.77928 | 8600 ft | 273 kts | 255° |
| 2026-05-05 04:13 | 52.04160 | 0.74960 | 8387 ft | 270 kts | 255° |
| 2026-05-05 04:13 | 52.03666 | 0.72043 | 8158 ft | 267 kts | 255° |
| 2026-05-05 04:13 | 52.03175 | 0.69146 | 7754 ft | 265 kts | 255° |
| 2026-05-05 04:14 | 52.02679 | 0.66230 | 7043 ft | 273 kts | 255° |
| 2026-05-05 04:14 | 52.02174 | 0.63268 | 6713 ft | 267 kts | 255° |
| 2026-05-05 04:14 | 52.01690 | 0.60429 | 6479 ft | 257 kts | 257° |
| 2026-05-05 04:14 | 52.01457 | 0.57603 | 6127 ft | 251 kts | 269° |
| 2026-05-05 04:15 | 52.01427 | 0.54779 | 5692 ft | 250 kts | 271° |
| 2026-05-05 04:15 | 52.01407 | 0.51951 | 5199 ft | 252 kts | 270° |
| 2026-05-05 04:15 | 52.01383 | 0.49085 | 4618 ft | 257 kts | 270° |
| 2026-05-05 04:15 | 52.01340 | 0.46161 | 4032 ft | 261 kts | 270° |
| 2026-05-05 04:16 | 52.01014 | 0.43289 | 3589 ft | 260 kts | 243° |
| 2026-05-05 04:16 | 51.99963 | 0.40947 | 3282 ft | 254 kts | 230° |
| 2026-05-05 04:16 | 51.98762 | 0.38873 | 2923 ft | 250 kts | 225° |
| 2026-05-05 04:16 | 51.97494 | 0.36967 | 2590 ft | 246 kts | 223° |
| 2026-05-05 04:17 | 51.96237 | 0.35105 | 2255 ft | 243 kts | 224° |
| 2026-05-05 04:17 | 51.95012 | 0.33271 | 1925 ft | 234 kts | 224° |
| 2026-05-05 04:17 | 51.93865 | 0.31594 | 1736 ft | 212 kts | 224° |
| 2026-05-05 04:17 | 51.92885 | 0.30029 | 1476 ft | 195 kts | 225° |
| 2026-05-05 04:18 | 51.91933 | 0.28713 | 1190 ft | 182 kts | 225° |
| 2026-05-05 04:18 | 51.91339 | 0.27810 | 1012 ft | 172 kts | 229° |
| 2026-05-05 04:18 | 51.90541 | 0.26532 | 775 ft | 155 kts | 223° |
| 2026-05-05 04:18 | 51.89763 | 0.25376 | 432 ft | 148 kts | 224° |
| 2026-05-05 04:19 | 51.89049 | 0.24302 | 345 ft | 117 kts | 223° |
| 2026-05-05 04:19 | 51.88623 | 0.23671 | 334 ft | 51 kts | 217° |
| 2026-05-05 04:19 | 51.88378 | 0.23522 | 346 ft | 30 kts | 193° |
| 2026-05-05 04:19 | 51.88249 | 0.23509 | 352 ft | 15 kts | 138° |
| 2026-05-05 04:20 | 51.88285 | 0.23642 | 355 ft | 14 kts | 43° |
| 2026-05-05 04:20 | 51.88357 | 0.23752 | 351 ft | 14 kts | 43° |
| 2026-05-05 04:20 | 51.88427 | 0.23855 | 348 ft | 13 kts | 42° |
| 2026-05-05 04:20 | 51.88500 | 0.23965 | 352 ft | 17 kts | 43° |
| 2026-05-05 04:21 | 51.88604 | 0.24121 | 348 ft | 23 kts | 43° |
| 2026-05-05 04:21 | 51.88730 | 0.24310 | 351 ft | 25 kts | 43° |
| 2026-05-05 04:21 | 51.88855 | 0.24498 | 348 ft | 24 kts | 43° |
| 2026-05-05 04:21 | 51.88973 | 0.24674 | 355 ft | 23 kts | 43° |
| 2026-05-05 04:22 | 51.89087 | 0.24846 | 348 ft | 22 kts | 43° |
| 2026-05-05 04:22 | 51.89196 | 0.25012 | 348 ft | 20 kts | 48° |
| 2026-05-05 04:22 | 51.89233 | 0.25178 | 355 ft | 16 kts | 124° |
| 2026-05-05 04:22 | 51.89174 | 0.25326 | 353 ft | 15 kts | 120° |
| 2026-05-05 04:23 | 51.89180 | 0.25434 | 350 ft | 5 kts | 58° |
| 2026-05-05 04:23 | 51.89182 | 0.25438 | 350 ft | 0 kts | 57° |